sensor_id;sensor_type;location;lat;lon;timestamp;pressure;altitude;pressure_sealevel;temperature;humidity
7662;BME280;30314;48.184;11.510;2023-03-20T00:01:27;96082.34;;;7.92;100.00
7662;BME280;30314;48.184;11.510;2023-03-20T00:03:56;96110.75;;;8.15;100.00
7662;BME280;30314;48.184;11.510;2023-03-20T00:06:26;96120.47;;;8.15;100.00
7662;BME280;30314;48.184;11.510;2023-03-20T00:08:56;96108.91;;;8.06;100.00
7662;BME280;30314;48.184;11.510;2023-03-20T00:13:56;96084.44;;;7.89;100.00
7662;BME280;30314;48.184;11.510;2023-03-20T00:16:24;96109.69;;;7.91;100.00
7662;BME280;30314;48.184;11.510;2023-03-20T00:18:53;96114.16;;;8.00;100.00
7662;BME280;30314;48.184;11.510;2023-03-20T00:21:21;96106.53;;;7.99;100.00
7662;BME280;30314;48.184;11.510;2023-03-20T00:23:48;96102.31;;;7.93;100.00
7662;BME280;30314;48.184;11.510;2023-03-20T00:26:16;96121.78;;;8.07;100.00
7662;BME280;30314;48.184;11.510;2023-03-20T00:28:47;96120.75;;;8.08;100.00
7662;BME280;30314;48.184;11.510;2023-03-20T00:31:26;96123.91;;;8.00;100.00
7662;BME280;30314;48.184;11.510;2023-03-20T00:33:57;96099.16;;;7.91;100.00
7662;BME280;30314;48.184;11.510;2023-03-20T00:36:26;96097.06;;;7.93;100.00
7662;BME280;30314;48.184;11.510;2023-03-20T00:38:53;96112.59;;;7.99;100.00
7662;BME280;30314;48.184;11.510;2023-03-20T00:41:30;96121.28;;;8.05;100.00
7662;BME280;30314;48.184;11.510;2023-03-20T00:46:35;96099.97;;;7.81;100.00
7662;BME280;30314;48.184;11.510;2023-03-20T00:49:04;96100.72;;;7.81;100.00
7662;BME280;30314;48.184;11.510;2023-03-20T00:51:31;96110.72;;;7.84;100.00
7662;BME280;30314;48.184;11.510;2023-03-20T00:53:57;96086.53;;;7.67;100.00
7662;BME280;30314;48.184;11.510;2023-03-20T00:56:31;96110.97;;;7.78;100.00
7662;BME280;30314;48.184;11.510;2023-03-20T00:59:00;96095.47;;;7.66;100.00
7662;BME280;30314;48.184;11.510;2023-03-20T01:01:28;96100.72;;;7.66;100.00
7662;BME280;30314;48.184;11.510;2023-03-20T01:03:55;96117.81;;;7.79;100.00
7662;BME280;30314;48.184;11.510;2023-03-20T01:06:21;96088.84;;;7.47;100.00
7662;BME280;30314;48.184;11.510;2023-03-20T01:08:48;96104.13;;;7.61;100.00
7662;BME280;30314;48.184;11.510;2023-03-20T01:11:19;96121.75;;;7.71;100.00
7662;BME280;30314;48.184;11.510;2023-03-20T01:13:47;96100.72;;;7.60;100.00
7662;BME280;30314;48.184;11.510;2023-03-20T01:16:22;96124.66;;;7.69;100.00
7662;BME280;30314;48.184;11.510;2023-03-20T01:18:50;96121.22;;;7.69;100.00
7662;BME280;30314;48.184;11.510;2023-03-20T01:21:17;96082.81;;;7.47;100.00
7662;BME280;30314;48.184;11.510;2023-03-20T01:23:44;96126.47;;;7.69;100.00
7662;BME280;30314;48.184;11.510;2023-03-20T01:26:21;96093.84;;;7.49;100.00
7662;BME280;30314;48.184;11.510;2023-03-20T01:28:49;96111.75;;;7.63;100.00
7662;BME280;30314;48.184;11.510;2023-03-20T01:31:17;96083.31;;;7.44;100.00
7662;BME280;30314;48.184;11.510;2023-03-20T01:33:44;96111.22;;;7.60;100.00
7662;BME280;30314;48.184;11.510;2023-03-20T01:36:13;96097.78;;;7.46;100.00
7662;BME280;30314;48.184;11.510;2023-03-20T01:38:42;96080.16;;;7.37;100.00
7662;BME280;30314;48.184;11.510;2023-03-20T01:41:14;96115.41;;;7.56;100.00
7662;BME280;30314;48.184;11.510;2023-03-20T01:43:44;96116.19;;;7.52;100.00
7662;BME280;30314;48.184;11.510;2023-03-20T01:46:25;96120.69;;;7.61;100.00
7662;BME280;30314;48.184;11.510;2023-03-20T01:49:07;96105.13;;;7.50;100.00
7662;BME280;30314;48.184;11.510;2023-03-20T01:51:34;96104.09;;;7.51;100.00
7662;BME280;30314;48.184;11.510;2023-03-20T01:54:22;96108.84;;;7.59;100.00
7662;BME280;30314;48.184;11.510;2023-03-20T01:57:02;96101.47;;;7.51;100.00
7662;BME280;30314;48.184;11.510;2023-03-20T01:59:34;96086.72;;;7.39;100.00
7662;BME280;30314;48.184;11.510;2023-03-20T02:02:04;96098.06;;;7.50;100.00
7662;BME280;30314;48.184;11.510;2023-03-20T02:04:35;96107.00;;;7.49;100.00
7662;BME280;30314;48.184;11.510;2023-03-20T02:07:08;96084.38;;;7.43;100.00
7662;BME280;30314;48.184;11.510;2023-03-20T02:09:43;96108.59;;;7.60;100.00
7662;BME280;30314;48.184;11.510;2023-03-20T02:12:15;96088.56;;;7.44;100.00
7662;BME280;30314;48.184;11.510;2023-03-20T02:14:44;96110.69;;;7.58;100.00
7662;BME280;30314;48.184;11.510;2023-03-20T02:17:22;96109.88;;;7.53;100.00
7662;BME280;30314;48.184;11.510;2023-03-20T02:25:59;96117.25;;;7.61;100.00
7662;BME280;30314;48.184;11.510;2023-03-20T02:34:22;96116.97;;;7.57;100.00
7662;BME280;30314;48.184;11.510;2023-03-20T02:42:21;96105.38;;;7.43;100.00
7662;BME280;30314;48.184;11.510;2023-03-20T02:50:30;96095.34;;;7.24;100.00
7662;BME280;30314;48.184;11.510;2023-03-20T02:53:39;96109.31;;;7.30;100.00
7662;BME280;30314;48.184;11.510;2023-03-20T02:56:24;96107.22;;;7.37;100.00
7662;BME280;30314;48.184;11.510;2023-03-20T02:59:16;96104.28;;;7.28;100.00
7662;BME280;30314;48.184;11.510;2023-03-20T03:01:51;96103.53;;;7.33;100.00
7662;BME280;30314;48.184;11.510;2023-03-20T03:04:33;96095.38;;;7.29;100.00
7662;BME280;30314;48.184;11.510;2023-03-20T03:07:03;96102.19;;;7.30;100.00
7662;BME280;30314;48.184;11.510;2023-03-20T03:09:35;96122.47;;;7.40;100.00
7662;BME280;30314;48.184;11.510;2023-03-20T03:12:17;96112.19;;;7.28;100.00
7662;BME280;30314;48.184;11.510;2023-03-20T03:14:47;96109.28;;;7.25;100.00
7662;BME280;30314;48.184;11.510;2023-03-20T03:17:17;96123.50;;;7.39;100.00
7662;BME280;30314;48.184;11.510;2023-03-20T03:19:47;96123.50;;;7.34;100.00
7662;BME280;30314;48.184;11.510;2023-03-20T03:22:16;96099.00;;;7.18;100.00
7662;BME280;30314;48.184;11.510;2023-03-20T03:24:45;96125.34;;;7.33;100.00
7662;BME280;30314;48.184;11.510;2023-03-20T03:27:17;96127.16;;;7.33;100.00
7662;BME280;30314;48.184;11.510;2023-03-20T03:29:53;96125.06;;;7.35;100.00
7662;BME280;30314;48.184;11.510;2023-03-20T03:32:28;96126.69;;;7.46;100.00
7662;BME280;30314;48.184;11.510;2023-03-20T03:34:56;96136.41;;;7.46;100.00
7662;BME280;30314;48.184;11.510;2023-03-20T03:37:39;96133.28;;;7.49;100.00
7662;BME280;30314;48.184;11.510;2023-03-20T03:40:17;96133.00;;;7.40;100.00
7662;BME280;30314;48.184;11.510;2023-03-20T03:42:59;96120.59;;;7.25;100.00
7662;BME280;30314;48.184;11.510;2023-03-20T03:45:52;96127.94;;;7.23;100.00
7662;BME280;30314;48.184;11.510;2023-03-20T03:48:22;96137.97;;;7.37;100.00
7662;BME280;30314;48.184;11.510;2023-03-20T03:50:58;96122.69;;;7.28;100.00
7662;BME280;30314;48.184;11.510;2023-03-20T03:53:34;96148.75;;;7.40;100.00
7662;BME280;30314;48.184;11.510;2023-03-20T03:56:08;96136.88;;;7.32;100.00
7662;BME280;30314;48.184;11.510;2023-03-20T03:58:46;96127.94;;;7.28;100.00
7662;BME280;30314;48.184;11.510;2023-03-20T04:01:15;96129.75;;;7.23;100.00
7662;BME280;30314;48.184;11.510;2023-03-20T04:03:48;96150.00;;;7.32;100.00
7662;BME280;30314;48.184;11.510;2023-03-20T04:06:16;96134.47;;;7.21;100.00
7662;BME280;30314;48.184;11.510;2023-03-20T04:08:43;96136.34;;;7.30;100.00
7662;BME280;30314;48.184;11.510;2023-03-20T04:11:18;96162.41;;;7.42;100.00
7662;BME280;30314;48.184;11.510;2023-03-20T04:13:48;96161.09;;;7.40;100.00
7662;BME280;30314;48.184;11.510;2023-03-20T04:16:16;96158.69;;;7.33;100.00
7662;BME280;30314;48.184;11.510;2023-03-20T04:18:44;96164.75;;;7.33;100.00
7662;BME280;30314;48.184;11.510;2023-03-20T04:21:13;96151.06;;;7.31;100.00
7662;BME280;30314;48.184;11.510;2023-03-20T04:23:42;96091.59;;;6.99;100.00
7662;BME280;30314;48.184;11.510;2023-03-20T04:26:08;96149.53;;;7.36;100.00
7662;BME280;30314;48.184;11.510;2023-03-20T04:28:36;96173.19;;;7.46;100.00
7662;BME280;30314;48.184;11.510;2023-03-20T04:31:21;96159.53;;;7.44;100.00
7662;BME280;30314;48.184;11.510;2023-03-20T04:33:57;96169.56;;;7.57;100.00
7662;BME280;30314;48.184;11.510;2023-03-20T04:36:54;96174.56;;;7.59;100.00
7662;BME280;30314;48.184;11.510;2023-03-20T04:39:26;96179.81;;;7.59;100.00
7662;BME280;30314;48.184;11.510;2023-03-20T04:41:54;96147.13;;;7.29;100.00
7662;BME280;30314;48.184;11.510;2023-03-20T04:44:20;96175.28;;;7.33;100.00
7662;BME280;30314;48.184;11.510;2023-03-20T04:46:47;96178.91;;;7.32;100.00
7662;BME280;30314;48.184;11.510;2023-03-20T04:49:15;96176.56;;;7.31;100.00
7662;BME280;30314;48.184;11.510;2023-03-20T04:51:42;96182.09;;;7.35;100.00
7662;BME280;30314;48.184;11.510;2023-03-20T04:54:10;96181.06;;;7.36;100.00
7662;BME280;30314;48.184;11.510;2023-03-20T04:56:37;96181.81;;;7.31;100.00
7662;BME280;30314;48.184;11.510;2023-03-20T04:59:12;96169.97;;;7.28;100.00
7662;BME280;30314;48.184;11.510;2023-03-20T05:01:39;96179.72;;;7.38;100.00
7662;BME280;30314;48.184;11.510;2023-03-20T05:04:05;96144.69;;;7.12;100.00
7662;BME280;30314;48.184;11.510;2023-03-20T05:06:34;96201.84;;;7.42;100.00
7662;BME280;30314;48.184;11.510;2023-03-20T05:09:00;96202.88;;;7.41;100.00
7662;BME280;30314;48.184;11.510;2023-03-20T05:11:29;96177.09;;;7.28;100.00
7662;BME280;30314;48.184;11.510;2023-03-20T05:14:11;96169.44;;;7.26;100.00
7662;BME280;30314;48.184;11.510;2023-03-20T05:16:49;96174.47;;;7.28;100.00
7662;BME280;30314;48.184;11.510;2023-03-20T05:19:24;96189.41;;;7.22;100.00
7662;BME280;30314;48.184;11.510;2023-03-20T05:22:23;96191.22;;;7.22;100.00
7662;BME280;30314;48.184;11.510;2023-03-20T05:25:07;96197.00;;;7.24;100.00
7662;BME280;30314;48.184;11.510;2023-03-20T05:27:56;96185.97;;;7.27;100.00
7662;BME280;30314;48.184;11.510;2023-03-20T05:30:32;96208.09;;;7.36;100.00
7662;BME280;30314;48.184;11.510;2023-03-20T05:33:26;96214.69;;;7.39;100.00
7662;BME280;30314;48.184;11.510;2023-03-20T05:36:05;96205.19;;;7.27;100.00
7662;BME280;30314;48.184;11.510;2023-03-20T05:38:51;96201.97;;;7.20;100.00
7662;BME280;30314;48.184;11.510;2023-03-20T05:41:27;96207.50;;;7.24;100.00
7662;BME280;30314;48.184;11.510;2023-03-20T05:44:09;96198.84;;;7.23;100.00
7662;BME280;30314;48.184;11.510;2023-03-20T05:46:53;96215.09;;;7.20;100.00
7662;BME280;30314;48.184;11.510;2023-03-20T05:49:35;96206.38;;;7.09;100.00
7662;BME280;30314;48.184;11.510;2023-03-20T05:52:14;96202.72;;;7.10;100.00
7662;BME280;30314;48.184;11.510;2023-03-20T05:54:56;96208.72;;;7.05;100.00
7662;BME280;30314;48.184;11.510;2023-03-20T05:57:38;96228.97;;;7.10;100.00
7662;BME280;30314;48.184;11.510;2023-03-20T06:00:23;96227.22;;;7.21;100.00
7662;BME280;30314;48.184;11.510;2023-03-20T06:03:09;96215.09;;;7.15;100.00
7662;BME280;30314;48.184;11.510;2023-03-20T06:06:09;96230.13;;;7.25;100.00
7662;BME280;30314;48.184;11.510;2023-03-20T06:08:37;96237.47;;;7.23;100.00
7662;BME280;30314;48.184;11.510;2023-03-20T06:11:05;96228.69;;;7.07;100.00
7662;BME280;30314;48.184;11.510;2023-03-20T06:13:34;96248.50;;;7.25;100.00
7662;BME280;30314;48.184;11.510;2023-03-20T06:16:01;96255.03;;;7.17;100.00
7662;BME280;30314;48.184;11.510;2023-03-20T06:18:28;96253.22;;;7.23;100.00
7662;BME280;30314;48.184;11.510;2023-03-20T06:20:56;96259.22;;;7.13;100.00
7662;BME280;30314;48.184;11.510;2023-03-20T06:23:25;96238.13;;;7.02;100.00
7662;BME280;30314;48.184;11.510;2023-03-20T06:25:51;96251.03;;;7.09;100.00
7662;BME280;30314;48.184;11.510;2023-03-20T06:28:20;96267.13;;;7.18;100.00
7662;BME280;30314;48.184;11.510;2023-03-20T06:30:52;96251.78;;;6.99;100.00
7662;BME280;30314;48.184;11.510;2023-03-20T06:33:22;96255.03;;;7.17;100.00
7662;BME280;30314;48.184;11.510;2023-03-20T06:35:55;96262.34;;;7.10;100.00
7662;BME280;30314;48.184;11.510;2023-03-20T06:38:25;96266.03;;;7.14;100.00
7662;BME280;30314;48.184;11.510;2023-03-20T06:40:52;96277.06;;;7.11;100.00
7662;BME280;30314;48.184;11.510;2023-03-20T06:43:18;96242.03;;;7.00;100.00
7662;BME280;30314;48.184;11.510;2023-03-20T06:45:50;96254.28;;;7.22;100.00
7662;BME280;30314;48.184;11.510;2023-03-20T06:48:22;96251.34;;;7.18;100.00
7662;BME280;30314;48.184;11.510;2023-03-20T06:50:50;96274.59;;;7.37;100.00
7662;BME280;30314;48.184;11.510;2023-03-20T06:53:19;96270.84;;;7.27;100.00
7662;BME280;30314;48.184;11.510;2023-03-20T06:55:53;96265.63;;;7.32;100.00
7662;BME280;30314;48.184;11.510;2023-03-20T06:58:20;96250.13;;;7.31;100.00
7662;BME280;30314;48.184;11.510;2023-03-20T07:00:49;96258.03;;;7.36;100.00
7662;BME280;30314;48.184;11.510;2023-03-20T07:03:15;96228.81;;;7.22;100.00
7662;BME280;30314;48.184;11.510;2023-03-20T07:05:45;96237.75;;;7.31;100.00
7662;BME280;30314;48.184;11.510;2023-03-20T07:08:12;96254.63;;;7.41;100.00
7662;BME280;30314;48.184;11.510;2023-03-20T07:10:39;96255.25;;;7.58;100.00
7662;BME280;30314;48.184;11.510;2023-03-20T07:13:05;96259.53;;;7.75;100.00
7662;BME280;30314;48.184;11.510;2023-03-20T07:15:34;96266.94;;;7.88;100.00
7662;BME280;30314;48.184;11.510;2023-03-20T07:18:03;96283.53;;;7.99;100.00
7662;BME280;30314;48.184;11.510;2023-03-20T07:20:30;96276.41;;;7.89;100.00
7662;BME280;30314;48.184;11.510;2023-03-20T07:22:58;96281.09;;;7.82;100.00
7662;BME280;30314;48.184;11.510;2023-03-20T07:25:26;96292.72;;;7.97;100.00
7662;BME280;30314;48.184;11.510;2023-03-20T07:28:07;96234.19;;;7.53;100.00
7662;BME280;30314;48.184;11.510;2023-03-20T07:30:36;96290.06;;;7.81;100.00
7662;BME280;30314;48.184;11.510;2023-03-20T07:33:04;96283.72;;;7.77;100.00
7662;BME280;30314;48.184;11.510;2023-03-20T07:35:32;96302.69;;;7.84;100.00
7662;BME280;30314;48.184;11.510;2023-03-20T07:37:59;96298.50;;;7.94;100.00
7662;BME280;30314;48.184;11.510;2023-03-20T07:40:27;96299.28;;;7.84;100.00
7662;BME280;30314;48.184;11.510;2023-03-20T07:42:57;96305.31;;;7.84;100.00
7662;BME280;30314;48.184;11.510;2023-03-20T07:45:44;96302.94;;;7.83;100.00
7662;BME280;30314;48.184;11.510;2023-03-20T07:48:10;96283.72;;;7.77;100.00
7662;BME280;30314;48.184;11.510;2023-03-20T07:50:38;96251.88;;;7.68;100.00
7662;BME280;30314;48.184;11.510;2023-03-20T07:53:05;96292.72;;;7.97;100.00
7662;BME280;30314;48.184;11.510;2023-03-20T07:55:31;96288.63;;;8.32;100.00
7662;BME280;30314;48.184;11.510;2023-03-20T07:57:58;96269.44;;;8.57;100.00
7662;BME280;30314;48.184;11.510;2023-03-20T08:00:24;96295.53;;;9.00;100.00
7662;BME280;30314;48.184;11.510;2023-03-20T08:02:53;96298.16;;;9.00;100.00
7662;BME280;30314;48.184;11.510;2023-03-20T08:05:23;96277.38;;;8.83;100.00
7662;BME280;30314;48.184;11.510;2023-03-20T08:07:49;96297.66;;;8.98;100.00
7662;BME280;30314;48.184;11.510;2023-03-20T08:10:16;96299.75;;;9.07;100.00
7662;BME280;30314;48.184;11.510;2023-03-20T08:12:43;96263.94;;;9.00;100.00
7662;BME280;30314;48.184;11.510;2023-03-20T08:15:10;96303.19;;;9.33;100.00
7662;BME280;30314;48.184;11.510;2023-03-20T08:17:36;96305.81;;;9.33;100.00
7662;BME280;30314;48.184;11.510;2023-03-20T08:20:03;96317.69;;;9.46;100.00
7662;BME280;30314;48.184;11.510;2023-03-20T08:22:30;96308.69;;;9.42;100.00
7662;BME280;30314;48.184;11.510;2023-03-20T08:24:56;96289.47;;;9.31;100.00
7662;BME280;30314;48.184;11.510;2023-03-20T08:27:23;96293.94;;;9.15;100.00
7662;BME280;30314;48.184;11.510;2023-03-20T08:29:50;96302.41;;;8.96;100.00
7662;BME280;30314;48.184;11.510;2023-03-20T08:32:16;96289.22;;;8.91;100.00
7662;BME280;30314;48.184;11.510;2023-03-20T08:34:43;96302.91;;;8.83;100.00
7662;BME280;30314;48.184;11.510;2023-03-20T08:37:09;96285.00;;;8.90;100.00
7662;BME280;30314;48.184;11.510;2023-03-20T08:39:37;96289.22;;;8.91;100.00
7662;BME280;30314;48.184;11.510;2023-03-20T08:42:05;96252.34;;;8.50;100.00
7662;BME280;30314;48.184;11.510;2023-03-20T08:44:32;96281.56;;;8.69;100.00
7662;BME280;30314;48.184;11.510;2023-03-20T08:46:58;96293.94;;;8.58;100.00
7662;BME280;30314;48.184;11.510;2023-03-20T08:49:25;96267.63;;;8.68;100.00
7662;BME280;30314;48.184;11.510;2023-03-20T08:51:53;96272.09;;;8.83;100.00
7662;BME280;30314;48.184;11.510;2023-03-20T08:54:19;96293.44;;;8.92;100.00
7662;BME280;30314;48.184;11.510;2023-03-20T08:56:46;96302.94;;;8.93;100.00
7662;BME280;30314;48.184;11.510;2023-03-20T08:59:15;96293.97;;;8.99;100.00
7662;BME280;30314;48.184;11.510;2023-03-20T09:01:42;96297.41;;;9.00;100.00
7662;BME280;30314;48.184;11.510;2023-03-20T09:04:15;96285.25;;;8.99;100.00
7662;BME280;30314;48.184;11.510;2023-03-20T09:06:42;96287.13;;;8.98;100.00
7662;BME280;30314;48.184;11.510;2023-03-20T09:09:09;96297.66;;;9.09;100.00
7662;BME280;30314;48.184;11.510;2023-03-20T09:11:36;96281.84;;;9.03;100.00
7662;BME280;30314;48.184;11.510;2023-03-20T09:14:02;96310.50;;;9.52;100.00
7662;BME280;30314;48.184;11.510;2023-03-20T09:16:29;96299.16;;;9.56;100.00
7662;BME280;30314;48.184;11.510;2023-03-20T09:18:55;96301.56;;;9.58;100.00
7662;BME280;30314;48.184;11.510;2023-03-20T09:21:22;96287.59;;;9.42;100.00
7662;BME280;30314;48.184;11.510;2023-03-20T09:23:48;96329.75;;;9.63;100.00
7662;BME280;30314;48.184;11.510;2023-03-20T09:26:15;96312.34;;;9.62;100.00
7662;BME280;30314;48.184;11.510;2023-03-20T09:28:42;96299.41;;;9.70;100.00
7662;BME280;30314;48.184;11.510;2023-03-20T09:31:08;96315.00;;;9.62;100.00
7662;BME280;30314;48.184;11.510;2023-03-20T09:33:35;96293.38;;;9.60;100.00
7662;BME280;30314;48.184;11.510;2023-03-20T09:36:02;96319.44;;;9.82;100.00
7662;BME280;30314;48.184;11.510;2023-03-20T09:38:29;96314.41;;;9.80;100.00
7662;BME280;30314;48.184;11.510;2023-03-20T09:41:00;96263.31;;;9.61;100.00
7662;BME280;30314;48.184;11.510;2023-03-20T09:46:22;96301.69;;;9.93;100.00
7662;BME280;30314;48.184;11.510;2023-03-20T09:52:19;96306.69;;;9.99;100.00
7662;BME280;30314;48.184;11.510;2023-03-20T09:54:50;96303.28;;;9.99;100.00
7662;BME280;30314;48.184;11.510;2023-03-20T09:57:29;96302.47;;;9.98;100.00
7662;BME280;30314;48.184;11.510;2023-03-20T10:00:02;96279.09;;;9.76;100.00
7662;BME280;30314;48.184;11.510;2023-03-20T10:05:21;96258.47;;;9.89;100.00
7662;BME280;30314;48.184;11.510;2023-03-20T10:07:51;96294.03;;;9.96;100.00
7662;BME280;30314;48.184;11.510;2023-03-20T10:10:52;96286.69;;;9.93;100.00
7662;BME280;30314;48.184;11.510;2023-03-20T10:19:01;96297.13;;;10.59;100.00
7662;BME280;30314;48.184;11.510;2023-03-20T10:21:43;96277.88;;;10.53;100.00
7662;BME280;30314;48.184;11.510;2023-03-20T10:24:16;96271.09;;;10.42;100.00
7662;BME280;30314;48.184;11.510;2023-03-20T10:26:51;96282.56;;;10.22;100.00
7662;BME280;30314;48.184;11.510;2023-03-20T10:29:53;96298.84;;;10.39;100.00
7662;BME280;30314;48.184;11.510;2023-03-20T10:32:35;96287.44;;;10.44;100.00
7662;BME280;30314;48.184;11.510;2023-03-20T10:35:27;96289.31;;;10.38;100.00
7662;BME280;30314;48.184;11.510;2023-03-20T10:38:21;96283.31;;;10.33;100.00
7662;BME280;30314;48.184;11.510;2023-03-20T10:40:55;96287.38;;;10.54;100.00
7662;BME280;30314;48.184;11.510;2023-03-20T10:43:30;96266.00;;;10.51;100.00
7662;BME280;30314;48.184;11.510;2023-03-20T10:46:06;96279.44;;;10.94;100.00
7662;BME280;30314;48.184;11.510;2023-03-20T10:48:38;96266.06;;;11.15;100.00
7662;BME280;30314;48.184;11.510;2023-03-20T10:51:12;96256.16;;;11.31;100.00
7662;BME280;30314;48.184;11.510;2023-03-20T10:54:01;96243.41;;;11.58;100.00
7662;BME280;30314;48.184;11.510;2023-03-20T10:56:35;96229.06;;;11.64;100.00
7662;BME280;30314;48.184;11.510;2023-03-20T10:59:08;96259.88;;;11.79;100.00
7662;BME280;30314;48.184;11.510;2023-03-20T11:01:37;96259.13;;;11.73;97.30
7662;BME280;30314;48.184;11.510;2023-03-20T11:04:03;96259.03;;;11.59;100.00
7662;BME280;30314;48.184;11.510;2023-03-20T11:06:32;96220.75;;;11.27;99.68
7662;BME280;30314;48.184;11.510;2023-03-20T11:09:18;96206.84;;;11.16;100.00
7662;BME280;30314;48.184;11.510;2023-03-20T11:11:47;96233.91;;;11.81;100.00
7662;BME280;30314;48.184;11.510;2023-03-20T11:14:24;96237.34;;;12.39;100.00
7662;BME280;30314;48.184;11.510;2023-03-20T11:16:53;96229.47;;;12.72;89.94
7662;BME280;30314;48.184;11.510;2023-03-20T11:19:23;96250.00;;;12.80;86.36
7662;BME280;30314;48.184;11.510;2023-03-20T11:21:54;96246.50;;;12.47;85.11
7662;BME280;30314;48.184;11.510;2023-03-20T11:24:43;96238.06;;;12.06;97.86
7662;BME280;30314;48.184;11.510;2023-03-20T11:27:23;96242.84;;;11.85;94.29
7662;BME280;30314;48.184;11.510;2023-03-20T11:29:51;96222.59;;;11.26;90.03
7662;BME280;30314;48.184;11.510;2023-03-20T11:32:54;96215.81;;;11.20;94.10
7662;BME280;30314;48.184;11.510;2023-03-20T11:37:54;96250.34;;;11.29;97.98
7662;BME280;30314;48.184;11.510;2023-03-20T11:40:29;96197.53;;;10.94;98.78
7662;BME280;30314;48.184;11.510;2023-03-20T11:43:07;96239.88;;;11.67;97.78
7662;BME280;30314;48.184;11.510;2023-03-20T11:45:37;96233.91;;;11.81;92.71
7662;BME280;30314;48.184;11.510;2023-03-20T11:48:05;96252.84;;;11.88;89.77
7662;BME280;30314;48.184;11.510;2023-03-20T11:50:35;96232.00;;;11.62;96.86
7662;BME280;30314;48.184;11.510;2023-03-20T11:53:30;96239.88;;;11.67;93.68
7662;BME280;30314;48.184;11.510;2023-03-20T11:56:09;96217.38;;;11.46;94.85
7662;BME280;30314;48.184;11.510;2023-03-20T12:01:46;96245.97;;;11.44;98.57
7662;BME280;30314;48.184;11.510;2023-03-20T12:06:51;96245.34;;;11.27;96.22
7662;BME280;30314;48.184;11.510;2023-03-20T12:09:25;96245.63;;;11.26;95.12
7662;BME280;30314;48.184;11.510;2023-03-20T12:11:58;96242.03;;;11.11;94.46
7662;BME280;30314;48.184;11.510;2023-03-20T12:14:32;96244.44;;;11.08;96.60
7662;BME280;30314;48.184;11.510;2023-03-20T12:17:29;96219.84;;;11.12;91.82
7662;BME280;30314;48.184;11.510;2023-03-20T12:20:12;96244.34;;;11.18;90.50
7662;BME280;30314;48.184;11.510;2023-03-20T12:22:55;96243.31;;;11.19;92.67
7662;BME280;30314;48.184;11.510;2023-03-20T12:25:36;96232.50;;;11.10;94.11
7662;BME280;30314;48.184;11.510;2023-03-20T12:28:15;96230.09;;;11.19;97.37
7662;BME280;30314;48.184;11.510;2023-03-20T12:30:58;96216.66;;;11.16;96.11
7662;BME280;30314;48.184;11.510;2023-03-20T12:33:39;96203.50;;;11.05;98.11
7662;BME280;30314;48.184;11.510;2023-03-20T12:36:21;96224.50;;;11.21;100.00
7662;BME280;30314;48.184;11.510;2023-03-20T12:38:50;96204.50;;;11.15;97.24
7662;BME280;30314;48.184;11.510;2023-03-20T12:41:29;96227.00;;;11.36;100.00
7662;BME280;30314;48.184;11.510;2023-03-20T12:46:45;96222.00;;;11.35;100.00
7662;BME280;30314;48.184;11.510;2023-03-20T12:52:08;96230.09;;;11.44;92.10
7662;BME280;30314;48.184;11.510;2023-03-20T12:55:09;96226.66;;;11.43;97.84
7662;BME280;30314;48.184;11.510;2023-03-20T12:58:20;96234.47;;;11.53;86.89
7662;BME280;30314;48.184;11.510;2023-03-20T13:01:01;96218.56;;;11.34;96.66
7662;BME280;30314;48.184;11.510;2023-03-20T13:06:51;96218.72;;;11.43;86.88
7662;BME280;30314;48.184;11.510;2023-03-20T13:10:07;96233.19;;;11.51;95.59
7662;BME280;30314;48.184;11.510;2023-03-20T13:18:10;96212.75;;;11.56;92.33
7662;BME280;30314;48.184;11.510;2023-03-20T13:20:50;96204.09;;;11.51;97.70
7662;BME280;30314;48.184;11.510;2023-03-20T13:23:24;96194.72;;;11.39;100.00
7662;BME280;30314;48.184;11.510;2023-03-20T13:28:35;96211.16;;;11.80;90.18
7662;BME280;30314;48.184;11.510;2023-03-20T13:31:14;96213.72;;;11.85;90.59
7662;BME280;30314;48.184;11.510;2023-03-20T13:34:10;96197.34;;;11.83;94.53
7662;BME280;30314;48.184;11.510;2023-03-20T13:37:22;96206.25;;;11.92;92.42
7662;BME280;30314;48.184;11.510;2023-03-20T13:42:37;96170.31;;;11.67;89.59
7662;BME280;30314;48.184;11.510;2023-03-20T13:45:29;96203.88;;;11.91;85.95
7662;BME280;30314;48.184;11.510;2023-03-20T13:48:03;96197.50;;;11.92;89.05
7662;BME280;30314;48.184;11.510;2023-03-20T13:50:44;96193.28;;;11.91;84.06
7662;BME280;30314;48.184;11.510;2023-03-20T13:53:27;96182.19;;;11.89;85.66
7662;BME280;30314;48.184;11.510;2023-03-20T13:56:04;96189.94;;;12.04;79.14
7662;BME280;30314;48.184;11.510;2023-03-20T14:01:16;96191.28;;;12.02;82.15
7662;BME280;30314;48.184;11.510;2023-03-20T14:03:48;96168.88;;;11.94;78.05
7662;BME280;30314;48.184;11.510;2023-03-20T14:08:52;96156.84;;;11.63;83.55
7662;BME280;30314;48.184;11.510;2023-03-20T14:14:02;96157.19;;;11.56;79.32
7662;BME280;30314;48.184;11.510;2023-03-20T14:16:31;96152.34;;;11.45;81.75
7662;BME280;30314;48.184;11.510;2023-03-20T14:19:16;96160.53;;;11.43;83.61
7662;BME280;30314;48.184;11.510;2023-03-20T14:21:48;96162.69;;;11.41;85.46
7662;BME280;30314;48.184;11.510;2023-03-20T14:24:16;96173.88;;;11.57;81.64
7662;BME280;30314;48.184;11.510;2023-03-20T14:26:49;96170.66;;;11.60;79.95
7662;BME280;30314;48.184;11.510;2023-03-20T14:29:21;96176.41;;;11.43;85.82
7662;BME280;30314;48.184;11.510;2023-03-20T14:32:22;96173.22;;;11.46;84.04
7662;BME280;30314;48.184;11.510;2023-03-20T14:35:20;96137.28;;;11.21;83.67
7662;BME280;30314;48.184;11.510;2023-03-20T14:38:10;96161.13;;;11.40;81.85
7662;BME280;30314;48.184;11.510;2023-03-20T14:41:10;96175.34;;;11.44;87.56
7662;BME280;30314;48.184;11.510;2023-03-20T14:49:23;96166.09;;;11.66;85.48
7662;BME280;30314;48.184;11.510;2023-03-20T14:51:52;96156.13;;;11.58;82.96
7662;BME280;30314;48.184;11.510;2023-03-20T14:54:28;96170.59;;;11.84;77.65
7662;BME280;30314;48.184;11.510;2023-03-20T14:57:09;96146.06;;;11.60;84.48
7662;BME280;30314;48.184;11.510;2023-03-20T14:59:36;96130.03;;;11.51;81.82